createdAt,value
2022-10-20T05:33:10.925Z,12.60
2022-10-20T05:36:19.306Z,12.70
2022-10-20T05:39:23.505Z,12.60
2022-10-20T05:42:25.408Z,12.60
2022-10-20T05:45:27.068Z,12.60
2022-10-20T05:48:28.941Z,12.40
2022-10-20T05:51:34.294Z,12.40
2022-10-20T05:54:36.665Z,12.50
2022-10-20T05:57:38.355Z,12.50
2022-10-20T06:00:51.868Z,12.60
2022-10-20T06:03:57.965Z,12.70
2022-10-20T06:06:59.840Z,12.80
2022-10-20T06:10:03.143Z,12.80
2022-10-20T06:49:23.154Z,12.60
2022-10-20T06:52:25.308Z,12.90
2022-10-20T06:55:27.607Z,13.40
2022-10-20T06:58:30.086Z,13.80
2022-10-20T07:01:35.018Z,14.20
2022-10-20T07:04:36.850Z,14.40
2022-10-20T07:07:39.006Z,14.50
2022-10-20T07:10:40.752Z,14.50
2022-10-20T07:13:43.458Z,14.60
2022-10-20T07:16:45.510Z,14.70
2022-10-20T07:19:47.364Z,14.70
2022-10-20T07:22:49.400Z,14.70
2022-10-20T07:25:51.239Z,14.80
2022-10-20T07:28:57.444Z,15.00
2022-10-20T07:32:01.414Z,15.20
2022-10-20T07:35:05.934Z,15.40
2022-10-20T07:38:10.167Z,15.50
2022-10-20T07:41:14.160Z,15.70
2022-10-20T07:44:17.245Z,15.80
2022-10-20T07:47:19.903Z,16.00
2022-10-20T07:50:21.723Z,16.20
2022-10-20T07:53:24.904Z,16.50
2022-10-20T07:56:35.257Z,16.90
2022-10-20T07:59:43.561Z,17.20
2022-10-20T08:02:47.175Z,17.60
2022-10-20T08:05:50.281Z,18.10
2022-10-20T08:08:53.125Z,18.60
2022-10-20T08:11:56.027Z,19.00
2022-10-20T08:15:00.057Z,19.70
2022-10-20T08:18:02.402Z,20.30
2022-10-20T08:21:16.974Z,21.20
2022-10-20T08:24:18.835Z,21.60
2022-10-20T08:27:24.000Z,22.20
2022-10-20T08:30:28.454Z,22.40
2022-10-20T08:33:30.946Z,22.70
2022-10-20T08:36:42.060Z,22.50
2022-10-20T08:39:44.422Z,22.20
2022-10-20T08:42:48.432Z,22.30
2022-10-20T08:45:52.683Z,22.80
2022-10-20T08:48:57.357Z,23.20
2022-10-20T08:52:01.251Z,23.40
2022-10-20T08:55:08.794Z,23.50
2022-10-20T08:58:20.462Z,23.30
2022-10-20T09:01:26.401Z,23.60
2022-10-20T09:04:36.316Z,24.10
2022-10-20T09:07:42.228Z,23.90
2022-10-20T09:10:49.666Z,24.60
2022-10-20T09:13:53.483Z,23.40
2022-10-20T09:17:00.206Z,22.10
2022-10-20T09:20:04.734Z,22.30
2022-10-20T09:23:28.210Z,22.50
2022-10-20T09:30:22.773Z,22.30
2022-10-20T09:33:30.666Z,21.30
2022-10-20T09:37:13.425Z,20.90
2022-10-20T09:40:22.958Z,19.40
2022-10-20T09:43:28.498Z,18.60
2022-10-20T09:46:39.003Z,18.40
2022-10-20T09:49:44.318Z,18.50
2022-10-20T09:52:48.104Z,18.90
2022-10-20T09:55:51.720Z,19.70
2022-10-20T09:58:54.805Z,20.10
2022-10-20T10:02:01.055Z,20.20
2022-10-20T10:05:20.625Z,20.20
2022-10-20T10:08:25.538Z,19.90
2022-10-20T10:11:35.948Z,20.10
2022-10-20T10:14:53.496Z,20.00
2022-10-20T10:17:55.939Z,19.80
2022-10-20T10:21:02.528Z,19.20
2022-10-20T10:24:06.456Z,19.40
2022-10-20T10:27:30.561Z,19.40
2022-10-20T10:30:35.387Z,20.00
2022-10-20T10:33:40.476Z,20.40
2022-10-20T10:36:42.773Z,20.20
2022-10-20T10:39:45.605Z,20.20
2022-10-20T10:43:29.985Z,20.00
2022-10-20T10:46:40.502Z,19.90
2022-10-20T10:50:09.912Z,19.80
2022-10-20T10:53:34.373Z,20.30
2022-10-20T10:56:46.731Z,20.40
2022-10-20T10:59:51.821Z,20.60
2022-10-20T11:03:13.420Z,20.60
2022-10-20T11:06:30.771Z,20.40
2022-10-20T11:09:58.247Z,20.00
2022-10-20T11:13:26.159Z,19.20
2022-10-20T11:16:40.330Z,19.20
2022-10-20T11:20:10.358Z,19.10
2022-10-20T11:23:51.941Z,19.20
2022-10-20T11:27:01.734Z,19.30
2022-10-20T11:30:16.667Z,19.30
2022-10-20T11:33:24.474Z,19.10
2022-10-20T11:36:30.583Z,18.90
2022-10-20T11:39:59.039Z,18.50
2022-10-20T11:43:24.015Z,18.70
2022-10-20T11:46:36.335Z,18.70
2022-10-20T11:49:40.331Z,19.10
2022-10-20T11:53:22.041Z,19.10
2022-10-20T11:56:38.965Z,19.20
2022-10-20T12:00:04.605Z,19.30
2022-10-20T12:03:34.683Z,19.40
2022-10-20T12:06:48.841Z,19.60
2022-10-20T12:10:30.755Z,19.60
2022-10-20T12:13:59.494Z,19.60
2022-10-20T12:17:24.357Z,19.40
2022-10-20T12:20:27.028Z,19.10
2022-10-20T12:23:46.133Z,19.10
2022-10-20T12:27:06.109Z,19.00
2022-10-20T12:30:43.999Z,19.00
2022-10-20T12:33:53.541Z,18.90
2022-10-20T12:37:08.750Z,18.80
2022-10-20T12:40:12.893Z,18.90
2022-10-20T12:43:44.850Z,18.70
2022-10-20T12:47:03.882Z,18.70
2022-10-20T12:50:18.263Z,19.00
2022-10-20T12:53:27.526Z,19.20
2022-10-20T12:56:36.879Z,19.20
2022-10-20T12:59:39.826Z,19.00
2022-10-20T13:02:49.777Z,18.90
2022-10-20T13:05:51.769Z,18.90
2022-10-20T13:09:17.081Z,18.80
2022-10-20T13:12:28.954Z,18.90
2022-10-20T13:15:42.879Z,18.70
2022-10-20T13:18:46.914Z,18.90
2022-10-20T13:21:50.408Z,19.10
2022-10-20T13:24:55.935Z,19.10
2022-10-20T13:28:13.924Z,19.10
2022-10-20T13:31:32.838Z,19.30
2022-10-20T13:34:57.328Z,19.50
2022-10-20T13:38:08.132Z,19.40
2022-10-20T13:41:38.079Z,19.50
2022-10-20T13:44:54.513Z,19.20
2022-10-20T13:48:10.044Z,18.90
2022-10-20T13:51:18.376Z,18.80
2022-10-20T13:54:27.366Z,18.60
2022-10-20T13:57:31.447Z,18.50
2022-10-20T14:00:36.189Z,18.30
2022-10-20T14:03:44.537Z,18.20
2022-10-20T14:06:47.341Z,18.20
2022-10-20T14:09:58.186Z,18.30
2022-10-20T14:13:02.244Z,18.10
2022-10-20T14:16:07.414Z,18.10
2022-10-20T14:19:12.838Z,18.00
2022-10-20T14:22:18.855Z,18.00
2022-10-20T14:25:22.151Z,18.00
2022-10-20T14:28:25.611Z,18.00
2022-10-20T14:31:27.495Z,18.00
2022-10-20T14:34:34.009Z,17.80
2022-10-20T14:37:40.530Z,17.70
2022-10-20T14:40:50.697Z,17.60
2022-10-20T14:43:56.581Z,17.60
2022-10-20T14:47:04.521Z,17.60
2022-10-20T14:50:06.815Z,17.60
2022-10-20T14:53:18.117Z,17.70
2022-10-20T14:56:25.535Z,18.00
2022-10-20T14:59:30.068Z,18.00
2022-10-20T15:02:40.160Z,17.90
2022-10-20T15:05:44.994Z,17.90
2022-10-20T15:08:57.637Z,17.70
2022-10-20T15:12:05.709Z,17.60
2022-10-20T15:15:21.212Z,17.70
2022-10-20T15:18:23.986Z,17.70
2022-10-20T15:21:29.323Z,17.70
2022-10-20T15:24:31.023Z,17.60
2022-10-20T15:27:32.789Z,17.70
2022-10-20T15:30:34.789Z,17.60
2022-10-20T15:33:36.611Z,17.50
2022-10-20T15:36:41.934Z,17.50
2022-10-20T15:39:44.496Z,17.50
2022-10-20T15:42:46.431Z,17.60
2022-10-20T15:45:54.574Z,17.30
2022-10-20T15:48:56.191Z,17.30
2022-10-20T15:51:57.925Z,17.20
2022-10-20T15:54:59.514Z,16.90
2022-10-20T15:58:01.741Z,16.80
